sensor_id;sensor_type;location;lat;lon;timestamp;P1;durP1;ratioP1;P2;durP2;ratioP2
69985;SDS011;57328;52.054;5.294;2022-07-29T00:01:03;1.65;;;0.82;;
69985;SDS011;57328;52.054;5.294;2022-07-29T00:03:30;4.97;;;1.05;;
69985;SDS011;57328;52.054;5.294;2022-07-29T00:09:27;2.88;;;1.05;;
69985;SDS011;57328;52.054;5.294;2022-07-29T00:14:54;3.13;;;1.30;;
69985;SDS011;57328;52.054;5.294;2022-07-29T00:17:24;4.45;;;1.23;;
69985;SDS011;57328;52.054;5.294;2022-07-29T00:19:52;2.75;;;1.23;;
69985;SDS011;57328;52.054;5.294;2022-07-29T00:22:19;4.80;;;1.25;;
69985;SDS011;57328;52.054;5.294;2022-07-29T00:24:47;3.15;;;1.33;;
69985;SDS011;57328;52.054;5.294;2022-07-29T00:27:15;2.85;;;1.00;;
69985;SDS011;57328;52.054;5.294;2022-07-29T00:29:45;5.53;;;1.17;;
69985;SDS011;57328;52.054;5.294;2022-07-29T00:32:13;7.72;;;1.15;;
69985;SDS011;57328;52.054;5.294;2022-07-29T00:34:40;2.35;;;1.20;;
69985;SDS011;57328;52.054;5.294;2022-07-29T00:37:26;2.67;;;0.90;;
69985;SDS011;57328;52.054;5.294;2022-07-29T00:39:54;3.38;;;0.90;;
69985;SDS011;57328;52.054;5.294;2022-07-29T00:42:22;2.67;;;1.35;;
69985;SDS011;57328;52.054;5.294;2022-07-29T00:44:49;2.45;;;1.00;;
69985;SDS011;57328;52.054;5.294;2022-07-29T00:47:16;2.22;;;1.05;;
69985;SDS011;57328;52.054;5.294;2022-07-29T00:49:44;3.67;;;0.98;;
69985;SDS011;57328;52.054;5.294;2022-07-29T00:52:11;2.35;;;1.25;;
69985;SDS011;57328;52.054;5.294;2022-07-29T00:54:42;5.03;;;1.20;;
69985;SDS011;57328;52.054;5.294;2022-07-29T00:57:10;2.53;;;0.93;;
69985;SDS011;57328;52.054;5.294;2022-07-29T00:59:38;4.50;;;1.20;;
69985;SDS011;57328;52.054;5.294;2022-07-29T01:02:08;3.95;;;1.45;;
69985;SDS011;57328;52.054;5.294;2022-07-29T01:04:38;1.88;;;1.00;;
69985;SDS011;57328;52.054;5.294;2022-07-29T01:07:07;3.05;;;1.10;;
69985;SDS011;57328;52.054;5.294;2022-07-29T01:09:34;5.10;;;1.85;;
69985;SDS011;57328;52.054;5.294;2022-07-29T01:12:15;4.13;;;1.40;;
69985;SDS011;57328;52.054;5.294;2022-07-29T01:14:43;3.80;;;1.20;;
69985;SDS011;57328;52.054;5.294;2022-07-29T01:22:19;2.78;;;1.20;;
69985;SDS011;57328;52.054;5.294;2022-07-29T01:30:21;2.58;;;1.20;;
69985;SDS011;57328;52.054;5.294;2022-07-29T01:37:45;2.85;;;1.00;;
69985;SDS011;57328;52.054;5.294;2022-07-29T01:40:20;2.67;;;1.10;;
69985;SDS011;57328;52.054;5.294;2022-07-29T01:42:50;3.42;;;1.13;;
69985;SDS011;57328;52.054;5.294;2022-07-29T01:45:20;2.38;;;1.10;;
69985;SDS011;57328;52.054;5.294;2022-07-29T01:48:02;4.00;;;1.27;;
69985;SDS011;57328;52.054;5.294;2022-07-29T01:50:32;2.00;;;1.13;;
69985;SDS011;57328;52.054;5.294;2022-07-29T01:53:03;3.70;;;1.30;;
69985;SDS011;57328;52.054;5.294;2022-07-29T01:55:32;3.17;;;1.25;;
69985;SDS011;57328;52.054;5.294;2022-07-29T01:58:01;6.03;;;1.20;;
69985;SDS011;57328;52.054;5.294;2022-07-29T02:00:30;3.50;;;1.10;;
69985;SDS011;57328;52.054;5.294;2022-07-29T02:02:58;4.78;;;1.25;;
69985;SDS011;57328;52.054;5.294;2022-07-29T02:05:26;4.35;;;1.58;;
69985;SDS011;57328;52.054;5.294;2022-07-29T02:07:54;4.80;;;1.60;;
69985;SDS011;57328;52.054;5.294;2022-07-29T02:10:23;3.15;;;1.30;;
69985;SDS011;57328;52.054;5.294;2022-07-29T02:12:54;4.88;;;1.35;;
69985;SDS011;57328;52.054;5.294;2022-07-29T02:15:22;5.28;;;1.20;;
69985;SDS011;57328;52.054;5.294;2022-07-29T02:17:51;6.72;;;1.52;;
69985;SDS011;57328;52.054;5.294;2022-07-29T02:20:20;2.33;;;1.20;;
69985;SDS011;57328;52.054;5.294;2022-07-29T02:22:49;4.50;;;1.33;;
69985;SDS011;57328;52.054;5.294;2022-07-29T02:25:16;2.90;;;1.23;;
69985;SDS011;57328;52.054;5.294;2022-07-29T02:27:45;2.83;;;1.33;;
69985;SDS011;57328;52.054;5.294;2022-07-29T02:32:41;4.10;;;1.30;;
69985;SDS011;57328;52.054;5.294;2022-07-29T02:35:08;4.35;;;1.60;;
69985;SDS011;57328;52.054;5.294;2022-07-29T02:37:36;3.13;;;1.40;;
69985;SDS011;57328;52.054;5.294;2022-07-29T02:40:04;5.10;;;1.20;;
69985;SDS011;57328;52.054;5.294;2022-07-29T02:42:32;4.68;;;1.33;;
69985;SDS011;57328;52.054;5.294;2022-07-29T02:45:00;3.47;;;1.33;;
69985;SDS011;57328;52.054;5.294;2022-07-29T02:47:35;4.15;;;1.33;;
69985;SDS011;57328;52.054;5.294;2022-07-29T02:50:27;4.28;;;1.30;;
69985;SDS011;57328;52.054;5.294;2022-07-29T02:53:05;3.38;;;1.20;;
69985;SDS011;57328;52.054;5.294;2022-07-29T02:55:40;3.40;;;1.60;;
69985;SDS011;57328;52.054;5.294;2022-07-29T03:00:41;3.50;;;1.50;;
69985;SDS011;57328;52.054;5.294;2022-07-29T03:05:37;4.13;;;1.40;;
69985;SDS011;57328;52.054;5.294;2022-07-29T03:08:04;3.33;;;1.38;;
69985;SDS011;57328;52.054;5.294;2022-07-29T03:13:00;3.55;;;1.42;;
69985;SDS011;57328;52.054;5.294;2022-07-29T03:15:27;4.82;;;1.30;;
69985;SDS011;57328;52.054;5.294;2022-07-29T03:21:18;4.38;;;1.50;;
69985;SDS011;57328;52.054;5.294;2022-07-29T03:23:45;2.88;;;1.38;;
69985;SDS011;57328;52.054;5.294;2022-07-29T03:26:20;3.50;;;1.35;;
69985;SDS011;57328;52.054;5.294;2022-07-29T03:28:48;4.15;;;1.90;;
69985;SDS011;57328;52.054;5.294;2022-07-29T03:31:17;3.58;;;1.63;;
69985;SDS011;57328;52.054;5.294;2022-07-29T03:36:11;6.68;;;1.58;;
69985;SDS011;57328;52.054;5.294;2022-07-29T03:41:07;4.63;;;1.52;;
69985;SDS011;57328;52.054;5.294;2022-07-29T03:43:36;4.45;;;1.38;;
69985;SDS011;57328;52.054;5.294;2022-07-29T03:46:14;4.40;;;1.50;;
69985;SDS011;57328;52.054;5.294;2022-07-29T03:48:45;5.97;;;1.52;;
69985;SDS011;57328;52.054;5.294;2022-07-29T03:51:13;3.88;;;1.50;;
69985;SDS011;57328;52.054;5.294;2022-07-29T03:53:40;3.97;;;1.40;;
69985;SDS011;57328;52.054;5.294;2022-07-29T03:56:08;5.03;;;1.50;;
69985;SDS011;57328;52.054;5.294;2022-07-29T03:58:37;5.45;;;1.30;;
69985;SDS011;57328;52.054;5.294;2022-07-29T04:01:04;3.85;;;1.60;;
69985;SDS011;57328;52.054;5.294;2022-07-29T04:03:32;5.50;;;1.45;;
69985;SDS011;57328;52.054;5.294;2022-07-29T04:06:04;3.92;;;1.50;;
69985;SDS011;57328;52.054;5.294;2022-07-29T04:08:34;3.83;;;1.50;;
69985;SDS011;57328;52.054;5.294;2022-07-29T04:11:02;4.30;;;1.60;;
69985;SDS011;57328;52.054;5.294;2022-07-29T04:13:31;4.75;;;1.40;;
69985;SDS011;57328;52.054;5.294;2022-07-29T04:15:59;4.13;;;1.23;;
69985;SDS011;57328;52.054;5.294;2022-07-29T04:18:27;3.00;;;1.30;;
69985;SDS011;57328;52.054;5.294;2022-07-29T04:20:54;4.32;;;1.55;;
69985;SDS011;57328;52.054;5.294;2022-07-29T04:23:22;4.32;;;1.60;;
69985;SDS011;57328;52.054;5.294;2022-07-29T04:25:49;5.05;;;1.40;;
69985;SDS011;57328;52.054;5.294;2022-07-29T04:28:16;3.42;;;1.42;;
69985;SDS011;57328;52.054;5.294;2022-07-29T04:30:43;3.78;;;1.42;;
69985;SDS011;57328;52.054;5.294;2022-07-29T04:33:11;3.38;;;1.30;;
69985;SDS011;57328;52.054;5.294;2022-07-29T04:35:38;3.13;;;1.38;;
69985;SDS011;57328;52.054;5.294;2022-07-29T04:38:15;2.88;;;1.30;;
69985;SDS011;57328;52.054;5.294;2022-07-29T04:40:43;4.15;;;1.40;;
69985;SDS011;57328;52.054;5.294;2022-07-29T04:43:12;4.88;;;1.58;;
69985;SDS011;57328;52.054;5.294;2022-07-29T04:45:40;4.47;;;1.30;;
69985;SDS011;57328;52.054;5.294;2022-07-29T04:48:08;5.57;;;1.40;;
69985;SDS011;57328;52.054;5.294;2022-07-29T04:53:07;3.05;;;1.35;;
69985;SDS011;57328;52.054;5.294;2022-07-29T04:55:34;5.53;;;1.20;;
69985;SDS011;57328;52.054;5.294;2022-07-29T04:58:04;3.80;;;1.23;;
69985;SDS011;57328;52.054;5.294;2022-07-29T05:00:33;4.80;;;1.27;;
69985;SDS011;57328;52.054;5.294;2022-07-29T05:03:00;2.90;;;1.20;;
69985;SDS011;57328;52.054;5.294;2022-07-29T05:05:28;5.25;;;1.50;;
69985;SDS011;57328;52.054;5.294;2022-07-29T05:07:55;3.17;;;1.13;;
69985;SDS011;57328;52.054;5.294;2022-07-29T05:10:22;4.50;;;1.52;;
69985;SDS011;57328;52.054;5.294;2022-07-29T05:12:50;4.18;;;1.35;;
69985;SDS011;57328;52.054;5.294;2022-07-29T05:15:17;2.92;;;1.30;;
69985;SDS011;57328;52.054;5.294;2022-07-29T05:17:45;2.38;;;1.33;;
69985;SDS011;57328;52.054;5.294;2022-07-29T05:20:12;2.60;;;1.17;;
69985;SDS011;57328;52.054;5.294;2022-07-29T05:22:39;4.43;;;1.33;;
69985;SDS011;57328;52.054;5.294;2022-07-29T05:25:14;2.22;;;1.30;;
69985;SDS011;57328;52.054;5.294;2022-07-29T05:30:08;2.88;;;1.35;;
69985;SDS011;57328;52.054;5.294;2022-07-29T05:32:36;4.30;;;1.40;;
69985;SDS011;57328;52.054;5.294;2022-07-29T05:35:03;3.40;;;1.40;;
69985;SDS011;57328;52.054;5.294;2022-07-29T05:37:33;2.97;;;1.30;;
69985;SDS011;57328;52.054;5.294;2022-07-29T05:40:00;3.60;;;1.40;;
69985;SDS011;57328;52.054;5.294;2022-07-29T05:42:27;3.97;;;1.33;;
69985;SDS011;57328;52.054;5.294;2022-07-29T05:44:55;2.53;;;1.40;;
69985;SDS011;57328;52.054;5.294;2022-07-29T05:47:22;4.03;;;1.50;;
69985;SDS011;57328;52.054;5.294;2022-07-29T05:49:50;4.28;;;1.33;;
69985;SDS011;57328;52.054;5.294;2022-07-29T05:52:17;4.68;;;1.35;;
69985;SDS011;57328;52.054;5.294;2022-07-29T05:54:44;6.07;;;1.45;;
69985;SDS011;57328;52.054;5.294;2022-07-29T05:57:18;5.30;;;1.40;;
69985;SDS011;57328;52.054;5.294;2022-07-29T05:59:45;3.70;;;1.85;;
69985;SDS011;57328;52.054;5.294;2022-07-29T06:02:13;4.55;;;1.60;;
69985;SDS011;57328;52.054;5.294;2022-07-29T06:04:40;4.13;;;1.50;;
69985;SDS011;57328;52.054;5.294;2022-07-29T06:07:07;5.95;;;1.60;;
69985;SDS011;57328;52.054;5.294;2022-07-29T06:09:35;3.33;;;1.52;;
69985;SDS011;57328;52.054;5.294;2022-07-29T06:12:02;4.03;;;1.60;;
69985;SDS011;57328;52.054;5.294;2022-07-29T06:14:29;4.05;;;1.25;;
69985;SDS011;57328;52.054;5.294;2022-07-29T06:16:56;2.72;;;1.50;;
69985;SDS011;57328;52.054;5.294;2022-07-29T06:19:23;4.38;;;1.52;;
69985;SDS011;57328;52.054;5.294;2022-07-29T06:21:51;2.70;;;1.38;;
69985;SDS011;57328;52.054;5.294;2022-07-29T06:24:18;4.95;;;1.67;;
69985;SDS011;57328;52.054;5.294;2022-07-29T06:26:46;4.22;;;1.58;;
69985;SDS011;57328;52.054;5.294;2022-07-29T06:29:13;3.80;;;1.90;;
69985;SDS011;57328;52.054;5.294;2022-07-29T06:31:40;4.57;;;1.65;;
69985;SDS011;57328;52.054;5.294;2022-07-29T06:34:07;4.72;;;1.90;;
69985;SDS011;57328;52.054;5.294;2022-07-29T06:36:36;3.78;;;1.50;;
69985;SDS011;57328;52.054;5.294;2022-07-29T06:39:08;5.05;;;1.65;;
69985;SDS011;57328;52.054;5.294;2022-07-29T06:41:37;4.68;;;1.60;;
69985;SDS011;57328;52.054;5.294;2022-07-29T06:44:04;3.58;;;1.60;;
69985;SDS011;57328;52.054;5.294;2022-07-29T06:46:31;3.83;;;1.65;;
69985;SDS011;57328;52.054;5.294;2022-07-29T06:48:59;5.90;;;1.80;;
69985;SDS011;57328;52.054;5.294;2022-07-29T06:51:27;3.70;;;1.77;;
69985;SDS011;57328;52.054;5.294;2022-07-29T06:53:55;5.10;;;1.83;;
69985;SDS011;57328;52.054;5.294;2022-07-29T06:56:31;6.90;;;2.05;;
69985;SDS011;57328;52.054;5.294;2022-07-29T06:59:06;4.38;;;2.13;;
69985;SDS011;57328;52.054;5.294;2022-07-29T07:01:33;3.40;;;2.00;;
69985;SDS011;57328;52.054;5.294;2022-07-29T07:04:01;4.68;;;2.17;;
69985;SDS011;57328;52.054;5.294;2022-07-29T07:06:28;5.20;;;1.88;;
69985;SDS011;57328;52.054;5.294;2022-07-29T07:08:55;5.03;;;2.53;;
69985;SDS011;57328;52.054;5.294;2022-07-29T07:11:22;3.40;;;1.70;;
69985;SDS011;57328;52.054;5.294;2022-07-29T07:13:49;3.70;;;2.03;;
69985;SDS011;57328;52.054;5.294;2022-07-29T07:16:16;5.13;;;1.80;;
69985;SDS011;57328;52.054;5.294;2022-07-29T07:18:44;6.93;;;1.80;;
69985;SDS011;57328;52.054;5.294;2022-07-29T07:21:11;4.22;;;1.63;;
69985;SDS011;57328;52.054;5.294;2022-07-29T07:23:44;3.05;;;1.75;;
69985;SDS011;57328;52.054;5.294;2022-07-29T07:26:11;6.50;;;1.90;;
69985;SDS011;57328;52.054;5.294;2022-07-29T07:28:39;5.68;;;1.80;;
69985;SDS011;57328;52.054;5.294;2022-07-29T07:31:06;4.18;;;1.75;;
69985;SDS011;57328;52.054;5.294;2022-07-29T07:33:33;7.75;;;2.00;;
69985;SDS011;57328;52.054;5.294;2022-07-29T07:36:00;4.70;;;1.60;;
69985;SDS011;57328;52.054;5.294;2022-07-29T07:38:28;6.20;;;2.00;;
69985;SDS011;57328;52.054;5.294;2022-07-29T07:40:55;4.75;;;1.58;;
69985;SDS011;57328;52.054;5.294;2022-07-29T07:43:22;4.80;;;1.60;;
69985;SDS011;57328;52.054;5.294;2022-07-29T07:45:49;5.03;;;1.90;;
69985;SDS011;57328;52.054;5.294;2022-07-29T07:48:16;4.85;;;1.65;;
69985;SDS011;57328;52.054;5.294;2022-07-29T07:50:43;5.88;;;1.85;;
69985;SDS011;57328;52.054;5.294;2022-07-29T07:53:11;7.53;;;1.90;;
69985;SDS011;57328;52.054;5.294;2022-07-29T07:55:41;6.38;;;1.52;;
69985;SDS011;57328;52.054;5.294;2022-07-29T07:58:29;4.28;;;1.65;;
69985;SDS011;57328;52.054;5.294;2022-07-29T08:00:56;4.40;;;1.60;;
69985;SDS011;57328;52.054;5.294;2022-07-29T08:03:25;5.88;;;1.98;;
69985;SDS011;57328;52.054;5.294;2022-07-29T08:05:53;4.35;;;1.88;;
69985;SDS011;57328;52.054;5.294;2022-07-29T08:08:20;4.53;;;1.70;;
69985;SDS011;57328;52.054;5.294;2022-07-29T08:10:47;4.22;;;2.00;;
69985;SDS011;57328;52.054;5.294;2022-07-29T08:13:28;3.95;;;1.77;;
69985;SDS011;57328;52.054;5.294;2022-07-29T08:15:56;7.90;;;1.90;;
69985;SDS011;57328;52.054;5.294;2022-07-29T08:18:24;4.20;;;1.40;;
69985;SDS011;57328;52.054;5.294;2022-07-29T08:20:53;3.55;;;1.55;;
69985;SDS011;57328;52.054;5.294;2022-07-29T08:23:21;7.05;;;1.73;;
69985;SDS011;57328;52.054;5.294;2022-07-29T08:25:50;2.78;;;1.35;;
69985;SDS011;57328;52.054;5.294;2022-07-29T08:28:20;5.95;;;1.95;;
69985;SDS011;57328;52.054;5.294;2022-07-29T08:30:51;3.72;;;1.60;;
69985;SDS011;57328;52.054;5.294;2022-07-29T08:33:18;5.18;;;1.95;;
69985;SDS011;57328;52.054;5.294;2022-07-29T08:35:45;4.53;;;1.40;;
69985;SDS011;57328;52.054;5.294;2022-07-29T08:38:13;3.67;;;1.50;;
69985;SDS011;57328;52.054;5.294;2022-07-29T08:40:40;2.35;;;1.20;;
69985;SDS011;57328;52.054;5.294;2022-07-29T08:43:07;4.50;;;1.60;;
69985;SDS011;57328;52.054;5.294;2022-07-29T08:45:39;6.00;;;1.80;;
69985;SDS011;57328;52.054;5.294;2022-07-29T08:48:13;5.82;;;1.60;;
69985;SDS011;57328;52.054;5.294;2022-07-29T08:50:41;5.70;;;1.60;;
69985;SDS011;57328;52.054;5.294;2022-07-29T08:53:13;6.35;;;1.60;;
69985;SDS011;57328;52.054;5.294;2022-07-29T08:55:41;3.25;;;1.70;;
69985;SDS011;57328;52.054;5.294;2022-07-29T08:58:09;4.63;;;1.92;;
69985;SDS011;57328;52.054;5.294;2022-07-29T09:00:41;3.60;;;1.60;;
69985;SDS011;57328;52.054;5.294;2022-07-29T09:03:11;6.00;;;1.83;;
69985;SDS011;57328;52.054;5.294;2022-07-29T09:05:41;4.05;;;1.48;;
69985;SDS011;57328;52.054;5.294;2022-07-29T09:08:13;4.88;;;1.60;;
69985;SDS011;57328;52.054;5.294;2022-07-29T09:10:41;5.80;;;1.70;;
69985;SDS011;57328;52.054;5.294;2022-07-29T09:13:08;7.07;;;1.80;;
69985;SDS011;57328;52.054;5.294;2022-07-29T09:15:35;5.15;;;1.60;;
69985;SDS011;57328;52.054;5.294;2022-07-29T09:18:02;5.07;;;1.40;;
69985;SDS011;57328;52.054;5.294;2022-07-29T09:20:29;4.57;;;1.42;;
69985;SDS011;57328;52.054;5.294;2022-07-29T09:23:15;5.15;;;1.63;;
69985;SDS011;57328;52.054;5.294;2022-07-29T09:28:17;5.53;;;1.70;;
69985;SDS011;57328;52.054;5.294;2022-07-29T09:30:54;4.00;;;1.30;;
69985;SDS011;57328;52.054;5.294;2022-07-29T09:33:22;3.75;;;1.60;;
69985;SDS011;57328;52.054;5.294;2022-07-29T09:38:21;4.55;;;1.92;;
69985;SDS011;57328;52.054;5.294;2022-07-29T09:40:58;4.10;;;1.33;;
69985;SDS011;57328;52.054;5.294;2022-07-29T09:43:31;5.28;;;1.67;;
69985;SDS011;57328;52.054;5.294;2022-07-29T09:46:09;4.38;;;1.50;;
69985;SDS011;57328;52.054;5.294;2022-07-29T09:48:37;6.35;;;1.55;;
69985;SDS011;57328;52.054;5.294;2022-07-29T09:51:05;3.50;;;1.52;;
69985;SDS011;57328;52.054;5.294;2022-07-29T09:53:34;6.45;;;1.90;;
69985;SDS011;57328;52.054;5.294;2022-07-29T09:56:02;5.10;;;1.80;;
69985;SDS011;57328;52.054;5.294;2022-07-29T09:58:29;5.13;;;1.85;;
69985;SDS011;57328;52.054;5.294;2022-07-29T10:00:56;7.05;;;1.63;;
69985;SDS011;57328;52.054;5.294;2022-07-29T10:03:23;6.88;;;1.80;;
69985;SDS011;57328;52.054;5.294;2022-07-29T10:06:10;4.35;;;1.30;;
69985;SDS011;57328;52.054;5.294;2022-07-29T10:08:39;6.50;;;1.60;;
69985;SDS011;57328;52.054;5.294;2022-07-29T10:11:09;5.40;;;1.65;;
69985;SDS011;57328;52.054;5.294;2022-07-29T10:13:37;3.35;;;1.48;;
69985;SDS011;57328;52.054;5.294;2022-07-29T10:16:05;3.40;;;1.40;;
69985;SDS011;57328;52.054;5.294;2022-07-29T10:20:59;5.18;;;1.42;;
69985;SDS011;57328;52.054;5.294;2022-07-29T10:23:28;6.63;;;2.03;;
69985;SDS011;57328;52.054;5.294;2022-07-29T10:26:11;4.97;;;1.50;;
69985;SDS011;57328;52.054;5.294;2022-07-29T10:28:38;5.93;;;1.55;;
69985;SDS011;57328;52.054;5.294;2022-07-29T10:36:07;3.33;;;1.38;;
69985;SDS011;57328;52.054;5.294;2022-07-29T10:44:13;4.15;;;1.40;;
69985;SDS011;57328;52.054;5.294;2022-07-29T10:46:44;6.32;;;1.73;;
69985;SDS011;57328;52.054;5.294;2022-07-29T10:49:18;5.75;;;1.73;;
69985;SDS011;57328;52.054;5.294;2022-07-29T10:54:18;5.82;;;1.63;;
69985;SDS011;57328;52.054;5.294;2022-07-29T10:56:46;6.38;;;2.10;;
69985;SDS011;57328;52.054;5.294;2022-07-29T11:01:41;5.05;;;1.60;;
69985;SDS011;57328;52.054;5.294;2022-07-29T11:04:15;4.90;;;1.73;;
69985;SDS011;57328;52.054;5.294;2022-07-29T11:09:29;2.80;;;1.50;;
69985;SDS011;57328;52.054;5.294;2022-07-29T11:12:02;5.07;;;1.60;;
69985;SDS011;57328;52.054;5.294;2022-07-29T11:17:16;4.30;;;1.55;;
69985;SDS011;57328;52.054;5.294;2022-07-29T11:19:45;4.50;;;1.65;;
69985;SDS011;57328;52.054;5.294;2022-07-29T11:22:33;3.97;;;1.80;;
69985;SDS011;57328;52.054;5.294;2022-07-29T11:25:13;3.95;;;1.33;;
69985;SDS011;57328;52.054;5.294;2022-07-29T11:27:42;5.20;;;1.70;;
69985;SDS011;57328;52.054;5.294;2022-07-29T11:30:11;5.97;;;1.85;;
69985;SDS011;57328;52.054;5.294;2022-07-29T11:32:40;5.05;;;1.55;;
69985;SDS011;57328;52.054;5.294;2022-07-29T11:35:20;5.85;;;1.48;;
69985;SDS011;57328;52.054;5.294;2022-07-29T11:38:23;6.18;;;2.13;;
69985;SDS011;57328;52.054;5.294;2022-07-29T11:43:53;4.90;;;1.60;;
69985;SDS011;57328;52.054;5.294;2022-07-29T11:46:43;6.60;;;1.70;;
69985;SDS011;57328;52.054;5.294;2022-07-29T11:49:08;4.18;;;1.60;;
69985;SDS011;57328;52.054;5.294;2022-07-29T11:51:40;6.57;;;1.70;;
69985;SDS011;57328;52.054;5.294;2022-07-29T11:54:24;5.75;;;1.80;;
69985;SDS011;57328;52.054;5.294;2022-07-29T11:56:53;7.07;;;2.30;;
69985;SDS011;57328;52.054;5.294;2022-07-29T11:59:23;5.35;;;1.40;;
69985;SDS011;57328;52.054;5.294;2022-07-29T12:01:59;7.57;;;1.60;;
69985;SDS011;57328;52.054;5.294;2022-07-29T12:07:17;6.32;;;2.33;;
69985;SDS011;57328;52.054;5.294;2022-07-29T12:09:51;6.10;;;2.53;;
69985;SDS011;57328;52.054;5.294;2022-07-29T12:12:22;5.68;;;2.50;;
69985;SDS011;57328;52.054;5.294;2022-07-29T12:17:30;11.57;;;2.97;;
69985;SDS011;57328;52.054;5.294;2022-07-29T12:19:59;7.13;;;2.33;;
69985;SDS011;57328;52.054;5.294;2022-07-29T12:22:31;7.78;;;2.90;;
69985;SDS011;57328;52.054;5.294;2022-07-29T12:25:17;8.25;;;2.50;;
69985;SDS011;57328;52.054;5.294;2022-07-29T12:28:01;4.32;;;2.25;;
69985;SDS011;57328;52.054;5.294;2022-07-29T12:30:36;10.55;;;3.30;;
69985;SDS011;57328;52.054;5.294;2022-07-29T12:33:13;7.00;;;2.08;;
69985;SDS011;57328;52.054;5.294;2022-07-29T12:35:41;6.05;;;2.70;;
69985;SDS011;57328;52.054;5.294;2022-07-29T12:38:19;6.30;;;2.42;;
69985;SDS011;57328;52.054;5.294;2022-07-29T12:40:46;10.10;;;2.42;;
69985;SDS011;57328;52.054;5.294;2022-07-29T12:43:18;8.07;;;2.50;;
69985;SDS011;57328;52.054;5.294;2022-07-29T12:45:52;6.70;;;2.05;;
69985;SDS011;57328;52.054;5.294;2022-07-29T12:48:33;6.60;;;2.25;;
69985;SDS011;57328;52.054;5.294;2022-07-29T12:51:00;4.32;;;1.98;;
69985;SDS011;57328;52.054;5.294;2022-07-29T12:53:28;7.30;;;2.35;;
69985;SDS011;57328;52.054;5.294;2022-07-29T12:55:56;7.78;;;2.20;;
69985;SDS011;57328;52.054;5.294;2022-07-29T12:58:33;7.75;;;2.33;;
69985;SDS011;57328;52.054;5.294;2022-07-29T13:03:27;8.93;;;2.08;;
69985;SDS011;57328;52.054;5.294;2022-07-29T13:06:01;5.72;;;1.95;;
69985;SDS011;57328;52.054;5.294;2022-07-29T13:08:28;6.82;;;2.40;;
69985;SDS011;57328;52.054;5.294;2022-07-29T13:10:55;4.85;;;1.85;;
69985;SDS011;57328;52.054;5.294;2022-07-29T13:13:23;7.65;;;2.20;;
69985;SDS011;57328;52.054;5.294;2022-07-29T13:16:07;5.50;;;1.92;;
69985;SDS011;57328;52.054;5.294;2022-07-29T13:18:34;6.70;;;2.00;;
69985;SDS011;57328;52.054;5.294;2022-07-29T13:21:12;7.43;;;2.00;;
69985;SDS011;57328;52.054;5.294;2022-07-29T13:23:39;6.57;;;1.92;;
69985;SDS011;57328;52.054;5.294;2022-07-29T13:26:10;7.10;;;2.10;;
69985;SDS011;57328;52.054;5.294;2022-07-29T13:28:38;6.50;;;2.20;;
69985;SDS011;57328;52.054;5.294;2022-07-29T13:31:09;7.40;;;2.55;;
69985;SDS011;57328;52.054;5.294;2022-07-29T13:33:36;7.55;;;2.47;;
69985;SDS011;57328;52.054;5.294;2022-07-29T13:36:04;8.57;;;2.10;;
69985;SDS011;57328;52.054;5.294;2022-07-29T13:38:31;4.60;;;1.70;;
69985;SDS011;57328;52.054;5.294;2022-07-29T13:41:00;5.63;;;2.10;;
69985;SDS011;57328;52.054;5.294;2022-07-29T13:43:28;8.02;;;2.20;;
69985;SDS011;57328;52.054;5.294;2022-07-29T13:45:57;4.18;;;1.83;;
69985;SDS011;57328;52.054;5.294;2022-07-29T13:48:24;5.68;;;1.98;;
69985;SDS011;57328;52.054;5.294;2022-07-29T13:50:52;7.43;;;1.90;;
69985;SDS011;57328;52.054;5.294;2022-07-29T13:53:19;4.78;;;1.98;;
69985;SDS011;57328;52.054;5.294;2022-07-29T13:55:52;4.85;;;1.80;;
69985;SDS011;57328;52.054;5.294;2022-07-29T13:58:19;8.80;;;2.00;;
69985;SDS011;57328;52.054;5.294;2022-07-29T14:00:47;6.50;;;1.88;;
69985;SDS011;57328;52.054;5.294;2022-07-29T14:03:14;4.97;;;1.88;;
69985;SDS011;57328;52.054;5.294;2022-07-29T14:05:42;5.28;;;1.88;;
69985;SDS011;57328;52.054;5.294;2022-07-29T14:08:09;4.57;;;1.80;;
69985;SDS011;57328;52.054;5.294;2022-07-29T14:10:36;6.80;;;2.53;;
69985;SDS011;57328;52.054;5.294;2022-07-29T14:13:03;5.85;;;2.03;;
69985;SDS011;57328;52.054;5.294;2022-07-29T14:15:49;8.63;;;1.90;;
69985;SDS011;57328;52.054;5.294;2022-07-29T14:18:17;6.55;;;1.73;;
69985;SDS011;57328;52.054;5.294;2022-07-29T14:20:45;7.88;;;1.70;;
69985;SDS011;57328;52.054;5.294;2022-07-29T14:23:26;5.70;;;1.60;;
69985;SDS011;57328;52.054;5.294;2022-07-29T14:26:09;5.80;;;1.80;;
69985;SDS011;57328;52.054;5.294;2022-07-29T14:28:50;7.05;;;1.80;;
69985;SDS011;57328;52.054;5.294;2022-07-29T14:31:31;6.65;;;1.77;;
69985;SDS011;57328;52.054;5.294;2022-07-29T14:34:12;5.78;;;1.50;;
69985;SDS011;57328;52.054;5.294;2022-07-29T14:36:55;4.25;;;1.55;;
69985;SDS011;57328;52.054;5.294;2022-07-29T14:39:36;5.13;;;1.80;;
69985;SDS011;57328;52.054;5.294;2022-07-29T14:42:17;5.28;;;1.65;;
69985;SDS011;57328;52.054;5.294;2022-07-29T14:44:59;6.90;;;1.95;;
69985;SDS011;57328;52.054;5.294;2022-07-29T14:47:40;4.25;;;1.60;;
69985;SDS011;57328;52.054;5.294;2022-07-29T14:50:21;9.07;;;1.95;;
69985;SDS011;57328;52.054;5.294;2022-07-29T14:53:02;4.10;;;1.55;;
69985;SDS011;57328;52.054;5.294;2022-07-29T14:55:45;4.10;;;1.38;;
69985;SDS011;57328;52.054;5.294;2022-07-29T14:58:26;4.68;;;1.40;;
69985;SDS011;57328;52.054;5.294;2022-07-29T15:01:09;8.35;;;1.58;;
69985;SDS011;57328;52.054;5.294;2022-07-29T15:03:51;4.40;;;1.60;;
69985;SDS011;57328;52.054;5.294;2022-07-29T15:06:32;4.60;;;1.38;;
69985;SDS011;57328;52.054;5.294;2022-07-29T15:09:14;4.30;;;1.48;;
69985;SDS011;57328;52.054;5.294;2022-07-29T15:11:57;6.72;;;1.55;;
69985;SDS011;57328;52.054;5.294;2022-07-29T15:14:38;5.85;;;1.38;;
69985;SDS011;57328;52.054;5.294;2022-07-29T15:17:19;3.30;;;1.20;;
69985;SDS011;57328;52.054;5.294;2022-07-29T15:20:03;4.75;;;1.35;;
69985;SDS011;57328;52.054;5.294;2022-07-29T15:22:44;6.18;;;1.60;;
69985;SDS011;57328;52.054;5.294;2022-07-29T15:25:25;5.30;;;1.50;;
69985;SDS011;57328;52.054;5.294;2022-07-29T15:28:06;3.95;;;1.42;;
69985;SDS011;57328;52.054;5.294;2022-07-29T15:30:47;4.30;;;1.30;;
69985;SDS011;57328;52.054;5.294;2022-07-29T15:33:28;5.03;;;1.20;;
69985;SDS011;57328;52.054;5.294;2022-07-29T15:36:10;4.68;;;1.63;;
69985;SDS011;57328;52.054;5.294;2022-07-29T15:38:58;4.13;;;1.42;;
69985;SDS011;57328;52.054;5.294;2022-07-29T15:41:25;4.47;;;1.50;;
69985;SDS011;57328;52.054;5.294;2022-07-29T15:43:52;5.30;;;1.42;;
69985;SDS011;57328;52.054;5.294;2022-07-29T15:46:20;4.50;;;1.55;;
69985;SDS011;57328;52.054;5.294;2022-07-29T15:49:06;2.10;;;1.15;;
69985;SDS011;57328;52.054;5.294;2022-07-29T15:54:01;4.32;;;1.50;;
69985;SDS011;57328;52.054;5.294;2022-07-29T15:56:29;4.85;;;1.40;;
69985;SDS011;57328;52.054;5.294;2022-07-29T15:58:57;4.35;;;1.50;;
69985;SDS011;57328;52.054;5.294;2022-07-29T16:01:26;4.57;;;1.33;;
69985;SDS011;57328;52.054;5.294;2022-07-29T16:03:53;3.60;;;1.42;;
69985;SDS011;57328;52.054;5.294;2022-07-29T16:06:22;5.97;;;1.60;;
69985;SDS011;57328;52.054;5.294;2022-07-29T16:08:49;4.88;;;1.60;;
69985;SDS011;57328;52.054;5.294;2022-07-29T16:11:16;3.53;;;1.40;;
69985;SDS011;57328;52.054;5.294;2022-07-29T16:13:43;4.63;;;1.30;;
69985;SDS011;57328;52.054;5.294;2022-07-29T16:16:11;4.47;;;1.60;;
69985;SDS011;57328;52.054;5.294;2022-07-29T16:18:38;4.95;;;1.40;;
69985;SDS011;57328;52.054;5.294;2022-07-29T16:21:05;7.22;;;1.80;;
69985;SDS011;57328;52.054;5.294;2022-07-29T16:23:32;5.57;;;1.88;;
69985;SDS011;57328;52.054;5.294;2022-07-29T16:25:59;6.03;;;1.60;;
69985;SDS011;57328;52.054;5.294;2022-07-29T16:28:27;4.63;;;1.58;;
69985;SDS011;57328;52.054;5.294;2022-07-29T16:30:55;6.55;;;1.70;;
69985;SDS011;57328;52.054;5.294;2022-07-29T16:33:24;8.27;;;2.08;;
69985;SDS011;57328;52.054;5.294;2022-07-29T16:35:51;4.85;;;1.52;;